sensor_id;sensor_type;location;lat;lon;timestamp;P1;durP1;ratioP1;P2;durP2;ratioP2
3726;SDS011;1879;45.876;12.300;2023-03-04T00:01:32;19.23;;;16.03;;
3726;SDS011;1879;45.876;12.300;2023-03-04T00:03:59;25.33;;;19.50;;
3726;SDS011;1879;45.876;12.300;2023-03-04T00:06:26;20.63;;;18.50;;
3726;SDS011;1879;45.876;12.300;2023-03-04T00:08:53;20.97;;;18.63;;
3726;SDS011;1879;45.876;12.300;2023-03-04T00:11:20;25.07;;;19.40;;
3726;SDS011;1879;45.876;12.300;2023-03-04T00:13:47;20.77;;;18.57;;
3726;SDS011;1879;45.876;12.300;2023-03-04T00:16:14;21.50;;;19.30;;
3726;SDS011;1879;45.876;12.300;2023-03-04T00:18:43;23.60;;;18.13;;
3726;SDS011;1879;45.876;12.300;2023-03-04T00:21:10;21.10;;;16.43;;
3726;SDS011;1879;45.876;12.300;2023-03-04T00:23:37;22.97;;;17.43;;
3726;SDS011;1879;45.876;12.300;2023-03-04T00:26:05;21.30;;;17.07;;
3726;SDS011;1879;45.876;12.300;2023-03-04T00:28:33;19.20;;;17.20;;
3726;SDS011;1879;45.876;12.300;2023-03-04T00:31:00;20.03;;;17.67;;
3726;SDS011;1879;45.876;12.300;2023-03-04T00:33:27;21.07;;;17.73;;
3726;SDS011;1879;45.876;12.300;2023-03-04T00:35:55;19.70;;;16.60;;
3726;SDS011;1879;45.876;12.300;2023-03-04T00:38:22;21.10;;;17.07;;
3726;SDS011;1879;45.876;12.300;2023-03-04T00:40:50;24.10;;;16.53;;
3726;SDS011;1879;45.876;12.300;2023-03-04T00:43:17;18.00;;;16.17;;
3726;SDS011;1879;45.876;12.300;2023-03-04T00:45:44;19.80;;;17.30;;
3726;SDS011;1879;45.876;12.300;2023-03-04T00:48:11;18.87;;;16.07;;
3726;SDS011;1879;45.876;12.300;2023-03-04T00:50:38;19.23;;;16.07;;
3726;SDS011;1879;45.876;12.300;2023-03-04T00:53:07;20.53;;;16.77;;
3726;SDS011;1879;45.876;12.300;2023-03-04T00:55:34;21.43;;;17.60;;
3726;SDS011;1879;45.876;12.300;2023-03-04T00:58:01;18.37;;;15.50;;
3726;SDS011;1879;45.876;12.300;2023-03-04T01:00:28;20.00;;;17.23;;
3726;SDS011;1879;45.876;12.300;2023-03-04T01:02:55;18.17;;;15.20;;
3726;SDS011;1879;45.876;12.300;2023-03-04T01:05:22;19.23;;;17.10;;
3726;SDS011;1879;45.876;12.300;2023-03-04T01:07:49;20.23;;;16.77;;
3726;SDS011;1879;45.876;12.300;2023-03-04T01:10:18;16.30;;;14.30;;
3726;SDS011;1879;45.876;12.300;2023-03-04T01:12:45;16.90;;;15.10;;
3726;SDS011;1879;45.876;12.300;2023-03-04T01:15:13;17.77;;;14.07;;
3726;SDS011;1879;45.876;12.300;2023-03-04T01:17:40;16.67;;;13.60;;
3726;SDS011;1879;45.876;12.300;2023-03-04T01:20:10;17.90;;;15.90;;
3726;SDS011;1879;45.876;12.300;2023-03-04T01:22:38;20.00;;;15.43;;
3726;SDS011;1879;45.876;12.300;2023-03-04T01:25:05;18.47;;;15.03;;
3726;SDS011;1879;45.876;12.300;2023-03-04T01:27:34;20.37;;;15.60;;
3726;SDS011;1879;45.876;12.300;2023-03-04T01:30:01;18.03;;;16.13;;
3726;SDS011;1879;45.876;12.300;2023-03-04T01:32:29;16.17;;;14.43;;
3726;SDS011;1879;45.876;12.300;2023-03-04T01:34:56;18.67;;;15.30;;
3726;SDS011;1879;45.876;12.300;2023-03-04T01:37:23;17.60;;;14.20;;
3726;SDS011;1879;45.876;12.300;2023-03-04T01:39:50;22.57;;;16.17;;
3726;SDS011;1879;45.876;12.300;2023-03-04T01:42:17;21.13;;;15.77;;
3726;SDS011;1879;45.876;12.300;2023-03-04T01:44:48;17.53;;;15.17;;
3726;SDS011;1879;45.876;12.300;2023-03-04T01:47:19;19.73;;;14.83;;
3726;SDS011;1879;45.876;12.300;2023-03-04T01:49:50;17.73;;;15.07;;
3726;SDS011;1879;45.876;12.300;2023-03-04T01:52:21;18.93;;;15.33;;
3726;SDS011;1879;45.876;12.300;2023-03-04T01:54:48;15.30;;;13.63;;
3726;SDS011;1879;45.876;12.300;2023-03-04T01:57:16;16.60;;;14.00;;
3726;SDS011;1879;45.876;12.300;2023-03-04T01:59:44;16.70;;;13.30;;
3726;SDS011;1879;45.876;12.300;2023-03-04T02:02:13;17.30;;;14.47;;
3726;SDS011;1879;45.876;12.300;2023-03-04T02:04:40;18.83;;;14.20;;
3726;SDS011;1879;45.876;12.300;2023-03-04T02:07:08;15.07;;;13.47;;
3726;SDS011;1879;45.876;12.300;2023-03-04T02:09:35;18.77;;;14.20;;
3726;SDS011;1879;45.876;12.300;2023-03-04T02:12:02;20.20;;;14.50;;
3726;SDS011;1879;45.876;12.300;2023-03-04T02:14:29;18.33;;;15.07;;
3726;SDS011;1879;45.876;12.300;2023-03-04T02:16:56;19.70;;;13.60;;
3726;SDS011;1879;45.876;12.300;2023-03-04T02:19:28;16.80;;;13.57;;
3726;SDS011;1879;45.876;12.300;2023-03-04T02:22:07;15.30;;;12.30;;
3726;SDS011;1879;45.876;12.300;2023-03-04T02:24:35;19.30;;;14.03;;
3726;SDS011;1879;45.876;12.300;2023-03-04T02:27:08;15.60;;;13.93;;
3726;SDS011;1879;45.876;12.300;2023-03-04T02:29:35;16.27;;;14.50;;
3726;SDS011;1879;45.876;12.300;2023-03-04T02:32:02;14.33;;;12.73;;
3726;SDS011;1879;45.876;12.300;2023-03-04T02:34:30;16.50;;;14.80;;
3726;SDS011;1879;45.876;12.300;2023-03-04T02:37:00;16.73;;;13.70;;
3726;SDS011;1879;45.876;12.300;2023-03-04T02:39:30;14.20;;;12.77;;
3726;SDS011;1879;45.876;12.300;2023-03-04T02:42:01;15.10;;;13.23;;
3726;SDS011;1879;45.876;12.300;2023-03-04T02:44:31;15.43;;;12.40;;
3726;SDS011;1879;45.876;12.300;2023-03-04T02:47:00;17.53;;;12.97;;
3726;SDS011;1879;45.876;12.300;2023-03-04T02:49:27;15.93;;;13.00;;
3726;SDS011;1879;45.876;12.300;2023-03-04T02:51:59;15.67;;;12.10;;
3726;SDS011;1879;45.876;12.300;2023-03-04T02:54:28;13.70;;;12.03;;
3726;SDS011;1879;45.876;12.300;2023-03-04T02:56:57;15.87;;;12.47;;
3726;SDS011;1879;45.876;12.300;2023-03-04T02:59:25;14.53;;;12.30;;
3726;SDS011;1879;45.876;12.300;2023-03-04T03:01:53;16.87;;;13.77;;
3726;SDS011;1879;45.876;12.300;2023-03-04T03:04:21;17.17;;;13.50;;
3726;SDS011;1879;45.876;12.300;2023-03-04T03:06:49;20.60;;;13.97;;
3726;SDS011;1879;45.876;12.300;2023-03-04T03:09:16;19.20;;;13.73;;
3726;SDS011;1879;45.876;12.300;2023-03-04T03:11:44;18.20;;;13.63;;
3726;SDS011;1879;45.876;12.300;2023-03-04T03:14:11;15.17;;;13.53;;
3726;SDS011;1879;45.876;12.300;2023-03-04T03:16:38;15.80;;;14.10;;
3726;SDS011;1879;45.876;12.300;2023-03-04T03:19:07;15.77;;;14.10;;
3726;SDS011;1879;45.876;12.300;2023-03-04T03:21:34;16.43;;;14.47;;
3726;SDS011;1879;45.876;12.300;2023-03-04T03:24:01;15.50;;;13.80;;
3726;SDS011;1879;45.876;12.300;2023-03-04T03:26:28;16.00;;;13.97;;
3726;SDS011;1879;45.876;12.300;2023-03-04T03:28:55;17.23;;;14.13;;
3726;SDS011;1879;45.876;12.300;2023-03-04T03:31:22;17.53;;;14.47;;
3726;SDS011;1879;45.876;12.300;2023-03-04T03:33:49;20.03;;;14.70;;
3726;SDS011;1879;45.876;12.300;2023-03-04T03:36:17;16.60;;;12.53;;
3726;SDS011;1879;45.876;12.300;2023-03-04T03:38:44;17.63;;;13.60;;
3726;SDS011;1879;45.876;12.300;2023-03-04T03:41:11;17.70;;;14.50;;
3726;SDS011;1879;45.876;12.300;2023-03-04T03:43:38;15.70;;;13.60;;
3726;SDS011;1879;45.876;12.300;2023-03-04T03:46:05;19.23;;;15.07;;
3726;SDS011;1879;45.876;12.300;2023-03-04T03:48:32;17.63;;;14.33;;
3726;SDS011;1879;45.876;12.300;2023-03-04T03:50:59;15.63;;;13.40;;
3726;SDS011;1879;45.876;12.300;2023-03-04T03:53:27;16.37;;;13.00;;
3726;SDS011;1879;45.876;12.300;2023-03-04T03:55:54;18.30;;;13.00;;
3726;SDS011;1879;45.876;12.300;2023-03-04T03:58:23;19.00;;;13.60;;
3726;SDS011;1879;45.876;12.300;2023-03-04T04:00:50;16.73;;;13.97;;
3726;SDS011;1879;45.876;12.300;2023-03-04T04:03:17;14.43;;;12.93;;
3726;SDS011;1879;45.876;12.300;2023-03-04T04:05:45;16.73;;;13.37;;
3726;SDS011;1879;45.876;12.300;2023-03-04T04:08:12;17.33;;;14.27;;
3726;SDS011;1879;45.876;12.300;2023-03-04T04:10:40;18.93;;;14.13;;
3726;SDS011;1879;45.876;12.300;2023-03-04T04:13:08;18.00;;;14.07;;
3726;SDS011;1879;45.876;12.300;2023-03-04T04:15:35;16.37;;;13.80;;
3726;SDS011;1879;45.876;12.300;2023-03-04T04:18:03;16.00;;;13.10;;
3726;SDS011;1879;45.876;12.300;2023-03-04T04:20:30;16.73;;;14.97;;
3726;SDS011;1879;45.876;12.300;2023-03-04T04:22:57;15.10;;;13.57;;
3726;SDS011;1879;45.876;12.300;2023-03-04T04:25:24;23.27;;;16.40;;
3726;SDS011;1879;45.876;12.300;2023-03-04T04:27:52;17.93;;;14.87;;
3726;SDS011;1879;45.876;12.300;2023-03-04T04:30:19;16.53;;;14.03;;
3726;SDS011;1879;45.876;12.300;2023-03-04T04:32:46;19.93;;;15.07;;
3726;SDS011;1879;45.876;12.300;2023-03-04T04:35:13;16.20;;;14.50;;
3726;SDS011;1879;45.876;12.300;2023-03-04T04:37:40;18.63;;;14.33;;
3726;SDS011;1879;45.876;12.300;2023-03-04T04:40:08;16.77;;;13.70;;
3726;SDS011;1879;45.876;12.300;2023-03-04T04:42:35;16.67;;;13.63;;
3726;SDS011;1879;45.876;12.300;2023-03-04T04:45:05;15.33;;;13.73;;
3726;SDS011;1879;45.876;12.300;2023-03-04T04:47:33;18.17;;;16.20;;
3726;SDS011;1879;45.876;12.300;2023-03-04T04:50:00;21.47;;;14.20;;
3726;SDS011;1879;45.876;12.300;2023-03-04T04:52:27;16.73;;;14.47;;
3726;SDS011;1879;45.876;12.300;2023-03-04T04:54:54;17.27;;;14.30;;
3726;SDS011;1879;45.876;12.300;2023-03-04T04:57:21;18.40;;;14.73;;
3726;SDS011;1879;45.876;12.300;2023-03-04T04:59:48;18.60;;;14.00;;
3726;SDS011;1879;45.876;12.300;2023-03-04T05:02:17;18.33;;;14.90;;
3726;SDS011;1879;45.876;12.300;2023-03-04T05:04:44;17.87;;;13.93;;
3726;SDS011;1879;45.876;12.300;2023-03-04T05:07:11;19.17;;;15.63;;
3726;SDS011;1879;45.876;12.300;2023-03-04T05:09:38;16.07;;;13.27;;
3726;SDS011;1879;45.876;12.300;2023-03-04T05:12:05;19.13;;;15.70;;
3726;SDS011;1879;45.876;12.300;2023-03-04T05:14:32;16.90;;;15.10;;
3726;SDS011;1879;45.876;12.300;2023-03-04T05:16:59;19.50;;;14.17;;
3726;SDS011;1879;45.876;12.300;2023-03-04T05:19:27;18.13;;;15.43;;
3726;SDS011;1879;45.876;12.300;2023-03-04T05:21:54;15.33;;;13.73;;
3726;SDS011;1879;45.876;12.300;2023-03-04T05:24:21;16.20;;;14.43;;
3726;SDS011;1879;45.876;12.300;2023-03-04T05:26:48;17.37;;;14.53;;
3726;SDS011;1879;45.876;12.300;2023-03-04T05:29:15;16.97;;;14.80;;
3726;SDS011;1879;45.876;12.300;2023-03-04T05:31:43;16.90;;;14.30;;
3726;SDS011;1879;45.876;12.300;2023-03-04T05:34:10;16.57;;;14.70;;
3726;SDS011;1879;45.876;12.300;2023-03-04T05:36:38;22.50;;;16.30;;
3726;SDS011;1879;45.876;12.300;2023-03-04T05:39:05;17.37;;;13.93;;
3726;SDS011;1879;45.876;12.300;2023-03-04T05:41:32;19.20;;;14.07;;
3726;SDS011;1879;45.876;12.300;2023-03-04T05:43:59;15.07;;;13.47;;
3726;SDS011;1879;45.876;12.300;2023-03-04T05:46:26;15.63;;;13.63;;
3726;SDS011;1879;45.876;12.300;2023-03-04T05:48:53;17.90;;;13.37;;
3726;SDS011;1879;45.876;12.300;2023-03-04T05:51:21;16.73;;;13.83;;
3726;SDS011;1879;45.876;12.300;2023-03-04T05:53:49;17.63;;;14.70;;
3726;SDS011;1879;45.876;12.300;2023-03-04T05:56:17;15.07;;;13.47;;
3726;SDS011;1879;45.876;12.300;2023-03-04T05:58:45;16.47;;;13.60;;
3726;SDS011;1879;45.876;12.300;2023-03-04T06:01:12;20.57;;;14.20;;
3726;SDS011;1879;45.876;12.300;2023-03-04T06:03:39;15.90;;;14.10;;
3726;SDS011;1879;45.876;12.300;2023-03-04T06:06:07;16.10;;;14.40;;
3726;SDS011;1879;45.876;12.300;2023-03-04T06:08:34;16.47;;;14.60;;
3726;SDS011;1879;45.876;12.300;2023-03-04T06:11:03;18.50;;;14.20;;
3726;SDS011;1879;45.876;12.300;2023-03-04T06:13:30;19.10;;;15.60;;
3726;SDS011;1879;45.876;12.300;2023-03-04T06:15:58;17.97;;;15.47;;
3726;SDS011;1879;45.876;12.300;2023-03-04T06:18:25;19.67;;;14.87;;
3726;SDS011;1879;45.876;12.300;2023-03-04T06:20:54;18.67;;;15.23;;
3726;SDS011;1879;45.876;12.300;2023-03-04T06:23:22;17.07;;;14.83;;
3726;SDS011;1879;45.876;12.300;2023-03-04T06:25:50;17.40;;;15.57;;
3726;SDS011;1879;45.876;12.300;2023-03-04T06:28:19;15.57;;;13.93;;
3726;SDS011;1879;45.876;12.300;2023-03-04T06:30:47;15.60;;;14.00;;
3726;SDS011;1879;45.876;12.300;2023-03-04T06:33:16;15.90;;;13.73;;
3726;SDS011;1879;45.876;12.300;2023-03-04T06:35:43;15.43;;;13.83;;
3726;SDS011;1879;45.876;12.300;2023-03-04T06:38:10;18.67;;;14.27;;
3726;SDS011;1879;45.876;12.300;2023-03-04T06:40:37;17.87;;;13.47;;
3726;SDS011;1879;45.876;12.300;2023-03-04T06:43:04;19.23;;;16.10;;
3726;SDS011;1879;45.876;12.300;2023-03-04T06:45:32;18.57;;;14.50;;
3726;SDS011;1879;45.876;12.300;2023-03-04T06:47:59;22.97;;;15.57;;
3726;SDS011;1879;45.876;12.300;2023-03-04T06:50:26;20.20;;;14.77;;
3726;SDS011;1879;45.876;12.300;2023-03-04T06:52:55;22.57;;;15.90;;
3726;SDS011;1879;45.876;12.300;2023-03-04T06:55:22;18.23;;;15.57;;
3726;SDS011;1879;45.876;12.300;2023-03-04T06:57:49;17.00;;;14.70;;
3726;SDS011;1879;45.876;12.300;2023-03-04T07:00:17;17.50;;;15.40;;
3726;SDS011;1879;45.876;12.300;2023-03-04T07:02:46;18.33;;;15.47;;
3726;SDS011;1879;45.876;12.300;2023-03-04T07:05:12;19.00;;;15.70;;
3726;SDS011;1879;45.876;12.300;2023-03-04T07:07:39;24.03;;;20.90;;
3726;SDS011;1879;45.876;12.300;2023-03-04T07:10:08;26.90;;;22.30;;
3726;SDS011;1879;45.876;12.300;2023-03-04T07:12:36;32.83;;;22.30;;
3726;SDS011;1879;45.876;12.300;2023-03-04T07:15:03;26.87;;;20.57;;
3726;SDS011;1879;45.876;12.300;2023-03-04T07:17:30;26.13;;;18.83;;
3726;SDS011;1879;45.876;12.300;2023-03-04T07:20:00;20.17;;;17.23;;
3726;SDS011;1879;45.876;12.300;2023-03-04T07:22:27;17.00;;;15.30;;
3726;SDS011;1879;45.876;12.300;2023-03-04T07:24:54;18.80;;;15.57;;
3726;SDS011;1879;45.876;12.300;2023-03-04T07:27:21;20.70;;;15.83;;
3726;SDS011;1879;45.876;12.300;2023-03-04T07:29:48;16.13;;;13.83;;
3726;SDS011;1879;45.876;12.300;2023-03-04T07:32:15;15.00;;;13.50;;
3726;SDS011;1879;45.876;12.300;2023-03-04T07:34:42;14.03;;;12.63;;
3726;SDS011;1879;45.876;12.300;2023-03-04T07:37:11;17.80;;;12.33;;
3726;SDS011;1879;45.876;12.300;2023-03-04T07:39:38;14.00;;;11.73;;
3726;SDS011;1879;45.876;12.300;2023-03-04T07:42:05;13.63;;;12.23;;
3726;SDS011;1879;45.876;12.300;2023-03-04T07:44:32;16.50;;;12.30;;
3726;SDS011;1879;45.876;12.300;2023-03-04T07:46:59;16.20;;;12.80;;
3726;SDS011;1879;45.876;12.300;2023-03-04T07:49:26;13.40;;;11.90;;
3726;SDS011;1879;45.876;12.300;2023-03-04T07:51:53;15.50;;;11.23;;
3726;SDS011;1879;45.876;12.300;2023-03-04T07:54:21;13.73;;;12.20;;
3726;SDS011;1879;45.876;12.300;2023-03-04T07:56:48;15.50;;;11.63;;
3726;SDS011;1879;45.876;12.300;2023-03-04T07:59:18;12.10;;;10.87;;
3726;SDS011;1879;45.876;12.300;2023-03-04T08:01:45;13.87;;;12.07;;
3726;SDS011;1879;45.876;12.300;2023-03-04T08:04:13;14.97;;;11.60;;
3726;SDS011;1879;45.876;12.300;2023-03-04T08:06:40;12.70;;;10.93;;
3726;SDS011;1879;45.876;12.300;2023-03-04T08:09:08;13.37;;;11.40;;
3726;SDS011;1879;45.876;12.300;2023-03-04T08:11:39;16.53;;;11.23;;
3726;SDS011;1879;45.876;12.300;2023-03-04T08:14:06;13.97;;;10.37;;
3726;SDS011;1879;45.876;12.300;2023-03-04T08:16:34;12.23;;;11.03;;
3726;SDS011;1879;45.876;12.300;2023-03-04T08:19:01;14.43;;;10.60;;
3726;SDS011;1879;45.876;12.300;2023-03-04T08:21:29;10.60;;;9.50;;
3726;SDS011;1879;45.876;12.300;2023-03-04T08:23:57;10.80;;;9.10;;
3726;SDS011;1879;45.876;12.300;2023-03-04T08:26:27;10.90;;;9.30;;
3726;SDS011;1879;45.876;12.300;2023-03-04T08:28:56;12.13;;;10.13;;
3726;SDS011;1879;45.876;12.300;2023-03-04T08:31:25;11.73;;;10.37;;
3726;SDS011;1879;45.876;12.300;2023-03-04T08:33:52;11.73;;;9.43;;
3726;SDS011;1879;45.876;12.300;2023-03-04T08:36:20;9.80;;;8.90;;
3726;SDS011;1879;45.876;12.300;2023-03-04T08:38:47;11.67;;;9.07;;
3726;SDS011;1879;45.876;12.300;2023-03-04T08:41:14;13.30;;;9.23;;
3726;SDS011;1879;45.876;12.300;2023-03-04T08:43:42;11.63;;;9.03;;
3726;SDS011;1879;45.876;12.300;2023-03-04T08:46:11;13.47;;;9.70;;
3726;SDS011;1879;45.876;12.300;2023-03-04T08:48:40;15.13;;;8.43;;
3726;SDS011;1879;45.876;12.300;2023-03-04T08:51:07;10.73;;;9.00;;
3726;SDS011;1879;45.876;12.300;2023-03-04T08:53:35;11.60;;;8.40;;
3726;SDS011;1879;45.876;12.300;2023-03-04T08:56:02;8.60;;;7.70;;
3726;SDS011;1879;45.876;12.300;2023-03-04T08:58:29;11.00;;;7.97;;
3726;SDS011;1879;45.876;12.300;2023-03-04T09:00:57;9.73;;;8.37;;
3726;SDS011;1879;45.876;12.300;2023-03-04T09:03:26;10.83;;;9.00;;
3726;SDS011;1879;45.876;12.300;2023-03-04T09:05:54;11.23;;;9.23;;
3726;SDS011;1879;45.876;12.300;2023-03-04T09:08:21;9.20;;;8.20;;
3726;SDS011;1879;45.876;12.300;2023-03-04T09:10:50;9.67;;;8.77;;
3726;SDS011;1879;45.876;12.300;2023-03-04T09:13:18;9.17;;;8.27;;
3726;SDS011;1879;45.876;12.300;2023-03-04T09:15:45;12.53;;;9.43;;
3726;SDS011;1879;45.876;12.300;2023-03-04T09:18:12;12.67;;;10.00;;
3726;SDS011;1879;45.876;12.300;2023-03-04T09:20:41;15.87;;;11.00;;
3726;SDS011;1879;45.876;12.300;2023-03-04T09:23:09;14.20;;;10.20;;
3726;SDS011;1879;45.876;12.300;2023-03-04T09:25:37;13.10;;;9.70;;
3726;SDS011;1879;45.876;12.300;2023-03-04T09:28:05;14.00;;;10.13;;
3726;SDS011;1879;45.876;12.300;2023-03-04T09:30:33;12.20;;;10.03;;
3726;SDS011;1879;45.876;12.300;2023-03-04T09:33:00;10.93;;;9.77;;
3726;SDS011;1879;45.876;12.300;2023-03-04T09:35:28;12.57;;;10.00;;
3726;SDS011;1879;45.876;12.300;2023-03-04T09:37:56;11.50;;;9.93;;
3726;SDS011;1879;45.876;12.300;2023-03-04T09:40:25;12.20;;;10.00;;
3726;SDS011;1879;45.876;12.300;2023-03-04T09:42:55;12.93;;;10.10;;
3726;SDS011;1879;45.876;12.300;2023-03-04T09:45:26;11.03;;;9.80;;
3726;SDS011;1879;45.876;12.300;2023-03-04T09:47:55;12.30;;;9.53;;
3726;SDS011;1879;45.876;12.300;2023-03-04T09:50:23;12.77;;;11.00;;
3726;SDS011;1879;45.876;12.300;2023-03-04T09:52:56;14.50;;;10.10;;
3726;SDS011;1879;45.876;12.300;2023-03-04T09:55:36;11.27;;;10.13;;
3726;SDS011;1879;45.876;12.300;2023-03-04T09:58:06;11.27;;;9.27;;
3726;SDS011;1879;45.876;12.300;2023-03-04T10:00:45;10.73;;;9.63;;
3726;SDS011;1879;45.876;12.300;2023-03-04T10:03:17;11.23;;;9.93;;
3726;SDS011;1879;45.876;12.300;2023-03-04T10:05:51;11.27;;;9.23;;
3726;SDS011;1879;45.876;12.300;2023-03-04T10:08:29;13.70;;;9.70;;
3726;SDS011;1879;45.876;12.300;2023-03-04T10:11:07;12.83;;;10.10;;
3726;SDS011;1879;45.876;12.300;2023-03-04T10:13:40;10.33;;;9.20;;
3726;SDS011;1879;45.876;12.300;2023-03-04T10:16:17;11.40;;;9.13;;
3726;SDS011;1879;45.876;12.300;2023-03-04T10:18:57;11.50;;;9.60;;
3726;SDS011;1879;45.876;12.300;2023-03-04T10:21:29;10.73;;;9.63;;
3726;SDS011;1879;45.876;12.300;2023-03-04T10:24:03;11.97;;;9.60;;
3726;SDS011;1879;45.876;12.300;2023-03-04T10:26:36;13.17;;;9.97;;
3726;SDS011;1879;45.876;12.300;2023-03-04T10:29:05;14.63;;;10.27;;
3726;SDS011;1879;45.876;12.300;2023-03-04T10:31:34;12.67;;;9.70;;
3726;SDS011;1879;45.876;12.300;2023-03-04T10:34:02;10.83;;;9.60;;
3726;SDS011;1879;45.876;12.300;2023-03-04T10:36:35;16.27;;;9.63;;
3726;SDS011;1879;45.876;12.300;2023-03-04T10:39:16;14.03;;;10.50;;
3726;SDS011;1879;45.876;12.300;2023-03-04T10:41:52;13.67;;;10.70;;
3726;SDS011;1879;45.876;12.300;2023-03-04T10:44:24;11.97;;;10.63;;
3726;SDS011;1879;45.876;12.300;2023-03-04T10:46:52;14.00;;;10.93;;
3726;SDS011;1879;45.876;12.300;2023-03-04T10:49:21;13.77;;;11.67;;
3726;SDS011;1879;45.876;12.300;2023-03-04T10:51:50;12.27;;;10.97;;
3726;SDS011;1879;45.876;12.300;2023-03-04T10:54:25;14.27;;;11.10;;
3726;SDS011;1879;45.876;12.300;2023-03-04T10:56:58;12.10;;;10.17;;
3726;SDS011;1879;45.876;12.300;2023-03-04T10:59:39;13.00;;;11.17;;
3726;SDS011;1879;45.876;12.300;2023-03-04T11:02:13;13.20;;;11.80;;
3726;SDS011;1879;45.876;12.300;2023-03-04T11:04:42;17.43;;;13.27;;
3726;SDS011;1879;45.876;12.300;2023-03-04T11:07:17;13.17;;;11.77;;
3726;SDS011;1879;45.876;12.300;2023-03-04T11:09:46;15.90;;;12.00;;
3726;SDS011;1879;45.876;12.300;2023-03-04T11:12:13;21.50;;;13.10;;
3726;SDS011;1879;45.876;12.300;2023-03-04T11:14:44;13.37;;;11.80;;
3726;SDS011;1879;45.876;12.300;2023-03-04T11:17:17;15.77;;;12.13;;
3726;SDS011;1879;45.876;12.300;2023-03-04T11:19:47;14.70;;;13.17;;
3726;SDS011;1879;45.876;12.300;2023-03-04T11:22:17;13.10;;;11.70;;
3726;SDS011;1879;45.876;12.300;2023-03-04T11:24:49;12.43;;;11.23;;
3726;SDS011;1879;45.876;12.300;2023-03-04T11:27:22;14.80;;;13.20;;
3726;SDS011;1879;45.876;12.300;2023-03-04T11:29:57;14.20;;;12.70;;
3726;SDS011;1879;45.876;12.300;2023-03-04T11:32:30;13.80;;;12.40;;
3726;SDS011;1879;45.876;12.300;2023-03-04T11:35:05;13.70;;;12.30;;
3726;SDS011;1879;45.876;12.300;2023-03-04T11:37:42;15.10;;;13.60;;
3726;SDS011;1879;45.876;12.300;2023-03-04T11:40:17;16.90;;;13.20;;
3726;SDS011;1879;45.876;12.300;2023-03-04T11:42:53;14.80;;;13.30;;
3726;SDS011;1879;45.876;12.300;2023-03-04T11:45:26;17.60;;;13.73;;
3726;SDS011;1879;45.876;12.300;2023-03-04T11:48:00;14.17;;;12.77;;
3726;SDS011;1879;45.876;12.300;2023-03-04T11:50:36;14.80;;;12.80;;
3726;SDS011;1879;45.876;12.300;2023-03-04T11:56:13;14.93;;;13.43;;
3726;SDS011;1879;45.876;12.300;2023-03-04T11:58:53;16.90;;;15.33;;
3726;SDS011;1879;45.876;12.300;2023-03-04T12:01:42;17.17;;;15.37;;
3726;SDS011;1879;45.876;12.300;2023-03-04T12:04:24;16.07;;;14.30;;
3726;SDS011;1879;45.876;12.300;2023-03-04T12:07:06;17.50;;;15.80;;
3726;SDS011;1879;45.876;12.300;2023-03-04T12:09:41;15.50;;;13.90;;
3726;SDS011;1879;45.876;12.300;2023-03-04T12:12:21;15.97;;;14.47;;
3726;SDS011;1879;45.876;12.300;2023-03-04T12:15:01;17.80;;;15.67;;
3726;SDS011;1879;45.876;12.300;2023-03-04T12:17:51;16.63;;;15.13;;
3726;SDS011;1879;45.876;12.300;2023-03-04T12:20:44;16.03;;;14.50;;
3726;SDS011;1879;45.876;12.300;2023-03-04T12:23:30;17.20;;;15.60;;
3726;SDS011;1879;45.876;12.300;2023-03-04T12:26:15;19.00;;;15.90;;
3726;SDS011;1879;45.876;12.300;2023-03-04T12:28:54;16.70;;;15.07;;
3726;SDS011;1879;45.876;12.300;2023-03-04T12:31:41;17.20;;;15.60;;
3726;SDS011;1879;45.876;12.300;2023-03-04T12:34:18;17.33;;;15.60;;
3726;SDS011;1879;45.876;12.300;2023-03-04T12:37:03;17.20;;;15.40;;
3726;SDS011;1879;45.876;12.300;2023-03-04T12:39:48;16.90;;;15.33;;
3726;SDS011;1879;45.876;12.300;2023-03-04T12:42:33;18.93;;;17.10;;
3726;SDS011;1879;45.876;12.300;2023-03-04T12:45:14;15.80;;;14.50;;
3726;SDS011;1879;45.876;12.300;2023-03-04T12:47:48;17.80;;;15.67;;
3726;SDS011;1879;45.876;12.300;2023-03-04T12:50:30;16.03;;;14.33;;
3726;SDS011;1879;45.876;12.300;2023-03-04T12:53:06;18.60;;;16.67;;
3726;SDS011;1879;45.876;12.300;2023-03-04T12:55:40;17.60;;;16.00;;
3726;SDS011;1879;45.876;12.300;2023-03-04T12:58:12;17.33;;;15.53;;
3726;SDS011;1879;45.876;12.300;2023-03-04T13:00:47;17.00;;;15.37;;
3726;SDS011;1879;45.876;12.300;2023-03-04T13:03:24;16.10;;;14.77;;
3726;SDS011;1879;45.876;12.300;2023-03-04T13:06:05;16.93;;;15.30;;
3726;SDS011;1879;45.876;12.300;2023-03-04T13:08:48;15.00;;;13.70;;
3726;SDS011;1879;45.876;12.300;2023-03-04T13:11:32;16.47;;;15.07;;
3726;SDS011;1879;45.876;12.300;2023-03-04T13:14:25;16.17;;;14.77;;
3726;SDS011;1879;45.876;12.300;2023-03-04T13:16:58;16.40;;;14.70;;
3726;SDS011;1879;45.876;12.300;2023-03-04T13:19:43;17.17;;;15.60;;
3726;SDS011;1879;45.876;12.300;2023-03-04T13:28:05;15.47;;;14.13;;
3726;SDS011;1879;45.876;12.300;2023-03-04T13:33:57;15.13;;;13.63;;
3726;SDS011;1879;45.876;12.300;2023-03-04T13:39:30;15.10;;;13.77;;
3726;SDS011;1879;45.876;12.300;2023-03-04T13:42:01;15.60;;;14.20;;
3726;SDS011;1879;45.876;12.300;2023-03-04T13:44:31;16.60;;;14.80;;
3726;SDS011;1879;45.876;12.300;2023-03-04T13:47:33;18.07;;;16.10;;
3726;SDS011;1879;45.876;12.300;2023-03-04T13:50:31;15.63;;;14.10;;
3726;SDS011;1879;45.876;12.300;2023-03-04T13:53:21;16.90;;;15.30;;
3726;SDS011;1879;45.876;12.300;2023-03-04T13:58:47;15.50;;;14.00;;
3726;SDS011;1879;45.876;12.300;2023-03-04T14:01:21;15.97;;;14.47;;
3726;SDS011;1879;45.876;12.300;2023-03-04T14:03:50;17.00;;;15.30;;
3726;SDS011;1879;45.876;12.300;2023-03-04T14:06:19;16.50;;;14.40;;
3726;SDS011;1879;45.876;12.300;2023-03-04T14:08:48;14.90;;;13.60;;
3726;SDS011;1879;45.876;12.300;2023-03-04T14:11:18;14.70;;;12.77;;
3726;SDS011;1879;45.876;12.300;2023-03-04T14:13:50;15.77;;;14.27;;
3726;SDS011;1879;45.876;12.300;2023-03-04T14:16:18;15.40;;;13.90;;
3726;SDS011;1879;45.876;12.300;2023-03-04T14:18:55;15.67;;;14.10;;
3726;SDS011;1879;45.876;12.300;2023-03-04T14:21:28;16.33;;;14.83;;
3726;SDS011;1879;45.876;12.300;2023-03-04T14:23:59;15.87;;;14.37;;
3726;SDS011;1879;45.876;12.300;2023-03-04T14:26:27;17.83;;;16.10;;
3726;SDS011;1879;45.876;12.300;2023-03-04T14:28:55;17.13;;;15.20;;
3726;SDS011;1879;45.876;12.300;2023-03-04T14:31:24;18.40;;;15.30;;
3726;SDS011;1879;45.876;12.300;2023-03-04T14:33:54;16.17;;;14.60;;
3726;SDS011;1879;45.876;12.300;2023-03-04T14:36:30;16.10;;;14.10;;
3726;SDS011;1879;45.876;12.300;2023-03-04T14:39:00;19.73;;;16.07;;
3726;SDS011;1879;45.876;12.300;2023-03-04T14:41:31;16.47;;;14.83;;
3726;SDS011;1879;45.876;12.300;2023-03-04T14:44:02;18.17;;;16.30;;
3726;SDS011;1879;45.876;12.300;2023-03-04T14:46:33;17.83;;;16.23;;
3726;SDS011;1879;45.876;12.300;2023-03-04T14:49:05;15.63;;;13.80;;
3726;SDS011;1879;45.876;12.300;2023-03-04T14:51:42;21.87;;;16.80;;
3726;SDS011;1879;45.876;12.300;2023-03-04T14:54:33;17.57;;;15.50;;
3726;SDS011;1879;45.876;12.300;2023-03-04T14:57:18;18.03;;;16.13;;
3726;SDS011;1879;45.876;12.300;2023-03-04T15:00:22;16.67;;;14.93;;
3726;SDS011;1879;45.876;12.300;2023-03-04T15:03:06;17.47;;;15.67;;
3726;SDS011;1879;45.876;12.300;2023-03-04T15:05:47;17.73;;;15.30;;
3726;SDS011;1879;45.876;12.300;2023-03-04T15:08:19;19.33;;;14.50;;
3726;SDS011;1879;45.876;12.300;2023-03-04T15:13:52;17.43;;;15.37;;
3726;SDS011;1879;45.876;12.300;2023-03-04T15:16:51;19.10;;;15.63;;